Time;durP1;ratioP1;P1;durP2;ratioP2;P2;SDS_P1;SDS_P2;PMS_P1;PMS_P2;Temp;Humidity;BMP_temperature;BMP_pressure;BME280_temperature;BME280_humidity;BME280_pressure;Samples;Min_cycle;Max_cycle;Signal;HPM_P1;HPM_P2
2023/08/10 00:01:55;;;;;;;4.87;4.30;;;;;;;9.68;100.00;96500.25;7435615;19;20397;-94
2023/08/10 00:04:22;;;;;;;9.30;4.57;;;;;;;9.61;100.00;96472.78;7431148;19;20365;-93
2023/08/10 00:06:49;;;;;;;5.77;5.23;;;;;;;8.84;100.00;96356.63;7397849;19;20385;-92
2023/08/10 00:09:16;;;;;;;4.97;4.30;;;;;;;8.98;100.00;96403.13;7400900;19;20396;-93
2023/08/10 00:11:43;;;;;;;5.90;4.47;;;;;;;7.33;100.00;96145.16;7398749;19;20381;-93
2023/08/10 00:14:10;;;;;;;5.87;3.80;;;;;;;9.76;100.00;96506.63;7397193;19;20397;-93
2023/08/10 00:16:37;;;;;;;8.40;5.00;;;;;;;9.61;100.00;96491.25;7401386;19;20381;-91
2023/08/10 00:19:06;;;;;;;6.93;3.63;;;;;;;8.69;100.00;96348.44;7416957;19;20389;-91
2023/08/10 00:21:33;;;;;;;4.07;3.67;;;;;;;8.62;100.00;96356.03;7404128;19;20544;-90
2023/08/10 00:24:01;;;;;;;4.80;3.80;;;;;;;8.37;100.00;96321.50;7397218;19;20428;-90
2023/08/10 00:26:28;;;;;;;4.87;3.57;;;;;;;9.10;100.00;96422.50;7398017;19;20403;-90
2023/08/10 00:28:55;;;;;;;4.77;4.03;;;;;;;9.05;100.00;96398.13;7399617;19;20371;-91
2023/08/10 00:31:22;;;;;;;4.00;2.77;;;;;;;9.50;100.00;96466.31;7401319;19;20892;-90
2023/08/10 00:33:49;;;;;;;4.93;3.10;;;;;;;8.85;100.00;96371.34;7401902;19;20417;-91
2023/08/10 00:36:16;;;;;;;12.00;3.40;;;;;;;9.49;100.00;96460.28;7400153;19;20678;-91
2023/08/10 00:38:43;;;;;;;7.03;3.53;;;;;;;8.47;100.00;96341.50;7415380;19;20387;-91
2023/08/10 00:41:11;;;;;;;7.23;3.10;;;;;;;8.49;100.00;96361.16;7428482;19;20409;-90
2023/08/10 00:43:38;;;;;;;3.67;2.63;;;;;;;7.94;100.00;96303.06;7427140;19;20521;-91
2023/08/10 00:46:06;;;;;;;8.43;4.10;;;;;;;6.95;100.00;96157.34;7427994;19;20457;-91
2023/08/10 00:48:34;;;;;;;4.90;4.00;;;;;;;8.00;100.00;96330.75;7428797;19;20428;-92
2023/08/10 00:51:01;;;;;;;10.43;4.97;;;;;;;7.16;100.00;96189.84;7429924;19;20377;-92
2023/08/10 00:53:29;;;;;;;5.90;3.90;;;;;;;8.29;100.00;96385.50;7432086;19;20416;-92
2023/08/10 00:55:56;;;;;;;5.10;3.77;;;;;;;8.25;100.00;96395.84;7429690;19;20393;-92
2023/08/10 00:58:24;;;;;;;12.10;3.77;;;;;;;7.85;100.00;96310.94;7429290;19;20413;-91
2023/08/10 01:00:51;;;;;;;5.43;4.00;;;;;;;8.32;100.00;96402.53;7401168;19;20417;-91
2023/08/10 01:03:18;;;;;;;7.60;3.10;;;;;;;9.14;100.00;96522.88;7396036;19;20401;-91
2023/08/10 01:05:56;;;;;;;6.30;3.70;;;;;;;7.86;100.00;96343.28;7397022;19;20384;-91
2023/08/10 01:08:31;;;;;;;7.73;3.37;;;;;;;8.76;100.00;96496.34;7396069;19;20382;-91
2023/08/10 01:11:09;;;;;;;4.37;2.50;;;;;;;8.62;100.00;96438.50;7395960;19;20392;-91
2023/08/10 01:13:57;;;;;;;3.70;3.00;;;;;;;7.82;100.00;96358.16;7397244;19;20932;-90
2023/08/10 01:16:26;;;;;;;4.17;2.70;;;;;;;8.73;100.00;96512.78;7395583;19;20460;-91
2023/08/10 01:18:55;;;;;;;3.60;2.57;;;;;;;8.78;100.00;96502.84;7396498;19;20368;-91
2023/08/10 01:21:47;;;;;;;6.80;2.80;;;;;;;8.21;100.00;96426.53;7394668;19;20393;-91
2023/08/10 01:24:25;;;;;;;3.83;3.03;;;;;;;8.97;100.00;96528.16;7394823;19;20381;-91
2023/08/10 01:26:55;;;;;;;3.70;2.87;;;;;;;8.37;100.00;96437.41;7395265;19;20369;-91
2023/08/10 01:29:24;;;;;;;2.40;2.20;;;;;;;8.46;100.00;96434.78;7396808;19;20771;-91
2023/08/10 01:31:52;;;;;;;4.83;2.87;;;;;;;7.66;100.00;96321.75;7395418;19;20608;-91
2023/08/10 01:34:19;;;;;;;3.67;2.43;;;;;;;8.53;100.00;96464.06;7394326;19;20389;-91
2023/08/10 01:36:46;;;;;;;4.70;2.40;;;;;;;7.98;100.00;96383.72;7397585;19;20943;-91
2023/08/10 01:39:13;;;;;;;2.53;1.90;;;;;;;8.94;100.00;96547.22;7397198;19;20384;-91
2023/08/10 01:41:40;;;;;;;5.10;2.37;;;;;;;7.63;100.00;96322.38;7395322;19;20383;-91
2023/08/10 01:44:07;;;;;;;5.73;1.80;;;;;;;8.54;100.00;96473.53;7392528;19;20404;-91
2023/08/10 01:46:39;;;;;;;6.80;2.00;;;;;;;8.53;100.00;96488.56;7394071;19;20377;-91
2023/08/10 01:49:11;;;;;;;3.27;2.30;;;;;;;7.74;100.00;96414.94;7395204;19;20384;-91
2023/08/10 01:51:40;;;;;;;1.63;1.53;;;;;;;7.61;100.00;96392.94;7395746;19;20365;-91
2023/08/10 01:54:11;;;;;;;3.07;1.57;;;;;;;7.28;100.00;96316.25;7393306;19;20424;-91
2023/08/10 01:56:38;;;;;;;7.00;2.23;;;;;;;7.78;100.00;96389.59;7394021;19;20739;-91
2023/08/10 01:59:05;;;;;;;2.70;1.93;;;;;;;8.15;100.00;96443.56;7394193;19;20389;-91
2023/08/10 02:01:33;;;;;;;3.50;3.00;;;;;;;7.41;100.00;96339.03;7394796;19;20436;-91
2023/08/10 02:04:00;;;;;;;3.27;2.97;;;;;;;7.70;100.00;96408.75;7392948;19;20400;-90
2023/08/10 02:06:27;;;;;;;5.73;3.10;;;;;;;7.60;100.00;96403.75;7395292;19;20373;-91
2023/08/10 02:08:54;;;;;;;5.40;3.73;;;;;;;7.53;100.00;96388.44;7393956;19;20395;-91
2023/08/10 02:11:21;;;;;;;5.33;3.60;;;;;;;7.48;100.00;96378.06;7393812;19;20387;-91
2023/08/10 02:13:48;;;;;;;4.60;3.80;;;;;;;8.06;100.00;96482.25;7391241;19;20948;-91
2023/08/10 02:16:15;;;;;;;6.87;4.93;;;;;;;7.75;100.00;96444.69;7394117;19;20387;-91
2023/08/10 02:18:42;;;;;;;5.40;3.77;;;;;;;7.42;100.00;96405.56;7393990;19;20357;-91
2023/08/10 02:21:09;;;;;;;3.53;3.20;;;;;;;8.49;100.00;96555.38;7394364;19;20356;-91
2023/08/10 02:23:37;;;;;;;6.03;4.37;;;;;;;7.96;100.00;96469.38;7391687;19;20424;-90
2023/08/10 02:26:04;;;;;;;3.80;3.00;;;;;;;7.97;100.00;96461.16;7393360;19;20400;-91
2023/08/10 02:28:31;;;;;;;4.77;3.40;;;;;;;7.19;100.00;96340.94;7393952;19;20364;-90
2023/08/10 02:30:59;;;;;;;4.30;3.90;;;;;;;8.03;100.00;96474.97;7397300;19;20436;-91
2023/08/10 02:33:26;;;;;;;5.20;3.93;;;;;;;8.63;100.00;96553.38;7390532;19;20487;-91
2023/08/10 02:35:53;;;;;;;4.60;3.20;;;;;;;7.32;100.00;96438.16;7396671;19;20392;-90
2023/08/10 02:38:20;;;;;;;5.27;3.27;;;;;;;7.08;100.00;96421.97;7394169;19;20381;-90
2023/08/10 02:40:47;;;;;;;4.37;2.93;;;;;;;7.38;100.00;96465.88;7395247;19;20791;-89
2023/08/10 02:43:15;;;;;;;4.23;3.17;;;;;;;8.13;100.00;96566.84;7393198;19;20472;-91
2023/08/10 02:45:42;;;;;;;5.70;2.90;;;;;;;7.38;100.00;96446.69;7398561;19;20395;-90
2023/08/10 02:48:09;;;;;;;5.73;2.87;;;;;;;8.08;100.00;96542.50;7393401;19;20385;-91
2023/08/10 02:50:36;;;;;;;2.13;1.90;;;;;;;7.50;100.00;96472.44;7392623;19;20384;-91
2023/08/10 02:53:03;;;;;;;2.20;2.03;;;;;;;7.89;100.00;96535.63;7392209;19;20404;-91
2023/08/10 02:55:30;;;;;;;3.47;2.10;;;;;;;7.43;100.00;96474.72;7392872;19;20389;-90
2023/08/10 02:57:57;;;;;;;3.80;2.30;;;;;;;7.33;100.00;96481.00;7392584;19;20437;-91
2023/08/10 03:00:24;;;;;;;2.50;1.53;;;;;;;7.60;100.00;96511.63;7396773;19;20916;-91
2023/08/10 03:02:52;;;;;;;2.63;2.40;;;;;;;6.71;100.00;96357.41;7391941;19;20924;-91
2023/08/10 03:05:20;;;;;;;2.50;2.30;;;;;;;7.01;100.00;96419.72;7399478;19;20387;-91
2023/08/10 03:07:48;;;;;;;2.30;2.10;;;;;;;7.04;100.00;96449.91;7400409;19;20413;-91
2023/08/10 03:10:15;;;;;;;3.80;2.03;;;;;;;7.27;100.00;96480.38;7400054;19;20373;-91
2023/08/10 03:12:43;;;;;;;7.43;2.97;;;;;;;5.84;100.00;96267.50;7399054;19;20940;-90
2023/08/10 03:15:11;;;;;;;3.40;2.27;;;;;;;6.77;100.00;96390.38;7397396;19;20452;-91
2023/08/10 03:17:42;;;;;;;6.33;2.47;;;;;;;7.23;100.00;96458.38;7403756;19;20372;-91
2023/08/10 03:20:14;;;;;;;2.30;1.90;;;;;;;7.95;100.00;96567.84;7400418;19;20404;-91
2023/08/10 03:22:41;;;;;;;3.97;2.00;;;;;;;6.19;100.00;96300.06;7402217;19;20495;-91
2023/08/10 03:25:10;;;;;;;6.20;2.23;;;;;;;6.62;100.00;96359.22;7414665;19;20385;-91
2023/08/10 03:27:38;;;;;;;4.27;3.07;;;;;;;6.14;100.00;96371.06;7421696;19;20389;-91
2023/08/10 03:30:08;;;;;;;6.47;2.40;;;;;;;6.39;100.00;96353.16;7413702;19;20441;-91
2023/08/10 03:32:37;;;;;;;2.10;2.00;;;;;;;5.73;100.00;96239.16;7397958;19;20412;-91
2023/08/10 03:35:05;;;;;;;7.67;2.10;;;;;;;6.46;100.00;96356.94;7397188;19;20380;-91
2023/08/10 03:37:32;;;;;;;2.07;1.67;;;;;;;6.68;100.00;96384.28;7398746;19;20718;-91
2023/08/10 03:39:59;;;;;;;2.60;2.33;;;;;;;7.23;100.00;96465.50;7397905;19;20391;-91
2023/08/10 03:42:26;;;;;;;2.87;1.93;;;;;;;6.66;100.00;96431.84;7396789;19;20407;-91
2023/08/10 03:44:55;;;;;;;2.67;2.47;;;;;;;6.43;100.00;96467.06;7400805;19;20747;-91
2023/08/10 03:47:22;;;;;;;3.10;2.80;;;;;;;6.36;100.00;96432.53;7402668;19;20463;-91
2023/08/10 03:49:49;;;;;;;3.67;2.07;;;;;;;7.23;100.00;96599.59;7399814;19;20460;-90
2023/08/10 03:52:16;;;;;;;2.30;2.10;;;;;;;6.45;100.00;96460.44;7401722;19;20420;-91
2023/08/10 03:54:43;;;;;;;8.27;2.37;;;;;;;6.96;100.00;96524.22;7398718;19;20408;-90
2023/08/10 03:57:10;;;;;;;3.47;1.87;;;;;;;7.52;100.00;96589.44;7403052;19;20476;-90
2023/08/10 03:59:39;;;;;;;4.10;2.47;;;;;;;7.45;100.00;96575.16;7400335;19;20356;-90
2023/08/10 04:02:06;;;;;;;1.87;1.77;;;;;;;7.49;100.00;96599.81;7402211;19;20877;-90
2023/08/10 04:04:34;;;;;;;2.90;2.27;;;;;;;7.23;100.00;96574.09;7401102;19;20392;-90
2023/08/10 04:07:01;;;;;;;6.30;2.87;;;;;;;6.63;100.00;96547.28;7401012;19;20369;-90
2023/08/10 04:09:29;;;;;;;3.23;2.37;;;;;;;6.69;100.00;96512.72;7401584;19;20376;-90
2023/08/10 04:11:56;;;;;;;2.73;2.10;;;;;;;5.89;100.00;96398.59;7400261;19;20752;-90
2023/08/10 04:14:23;;;;;;;3.50;2.20;;;;;;;5.74;100.00;96406.75;7401715;19;20912;-90
2023/08/10 04:16:50;;;;;;;3.53;2.17;;;;;;;6.09;100.00;96451.75;7400071;19;20380;-90
2023/08/10 04:19:17;;;;;;;2.70;2.50;;;;;;;6.03;100.00;96410.94;7401237;19;20927;-90
2023/08/10 04:21:45;;;;;;;2.57;2.30;;;;;;;5.46;100.00;96329.16;7400096;19;20403;-90
2023/08/10 04:24:12;;;;;;;3.20;3.00;;;;;;;6.35;100.00;96502.66;7399608;19;20452;-90
2023/08/10 04:26:39;;;;;;;2.70;2.33;;;;;;;6.22;100.00;96456.97;7405456;19;20380;-90
2023/08/10 04:29:06;;;;;;;5.30;2.20;;;;;;;5.88;100.00;96404.13;7404684;19;20389;-90
2023/08/10 04:31:33;;;;;;;5.40;2.20;;;;;;;6.48;100.00;96472.19;7400141;19;20399;-90
2023/08/10 04:34:00;;;;;;;4.83;2.97;;;;;;;7.03;100.00;96537.72;7397575;19;20404;-90
2023/08/10 04:36:27;;;;;;;4.50;2.53;;;;;;;7.38;100.00;96602.66;7400649;19;20385;-90
2023/08/10 04:38:54;;;;;;;7.53;4.40;;;;;;;7.15;100.00;96545.88;7398566;19;20377;-90
2023/08/10 04:41:21;;;;;;;4.10;3.63;;;;;;;7.44;100.00;96600.69;7397456;19;20393;-90
2023/08/10 04:43:48;;;;;;;4.07;3.67;;;;;;;6.50;100.00;96478.69;7394180;19;20420;-90
2023/08/10 04:46:15;;;;;;;8.90;4.23;;;;;;;7.16;100.00;96581.59;7398474;19;20405;-90
2023/08/10 04:48:42;;;;;;;4.03;3.67;;;;;;;6.98;100.00;96561.50;7396303;19;20376;-91
2023/08/10 04:51:11;;;;;;;4.17;3.77;;;;;;;7.25;100.00;96571.94;7396936;19;20377;-90
2023/08/10 04:53:38;;;;;;;7.63;3.50;;;;;;;7.08;100.00;96519.22;7395342;19;20420;-91
2023/08/10 04:56:05;;;;;;;5.57;4.07;;;;;;;6.55;100.00;96456.06;7394071;19;20389;-91
2023/08/10 04:58:32;;;;;;;5.77;4.40;;;;;;;6.85;100.00;96483.47;7400147;19;20931;-90
2023/08/10 05:00:59;;;;;;;4.20;3.80;;;;;;;7.28;100.00;96537.13;7396189;19;20774;-90
2023/08/10 05:03:26;;;;;;;4.77;3.80;;;;;;;7.33;100.00;96550.16;7395592;19;20461;-91
2023/08/10 05:05:53;;;;;;;4.13;3.13;;;;;;;7.65;100.00;96596.50;7397893;19;20404;-91
2023/08/10 05:08:21;;;;;;;5.87;4.13;;;;;;;7.18;100.00;96505.81;7396275;19;20368;-90
2023/08/10 05:10:49;;;;;;;5.90;3.37;;;;;;;7.38;100.00;96513.22;7397845;19;20385;-91
2023/08/10 05:13:16;;;;;;;5.70;3.37;;;;;;;7.50;100.00;96525.06;7397918;19;20419;-91
2023/08/10 05:15:44;;;;;;;3.60;3.30;;;;;;;7.79;100.00;96596.44;7393971;19;20394;-91
2023/08/10 05:18:11;;;;;;;3.10;2.80;;;;;;;7.21;100.00;96499.97;7397837;19;20393;-91
2023/08/10 05:20:38;;;;;;;2.30;2.10;;;;;;;7.37;100.00;96543.25;7396243;19;20373;-91
2023/08/10 05:23:05;;;;;;;8.63;3.63;;;;;;;6.23;100.00;96361.41;7400777;19;20401;-91
2023/08/10 05:25:32;;;;;;;10.40;2.83;;;;;;;8.38;100.00;96635.78;7402443;19;20377;-91
2023/08/10 05:27:59;;;;;;;10.30;3.30;;;;;;;8.33;100.00;96641.16;7404686;19;20381;-91
2023/08/10 05:30:26;;;;;;;3.63;2.67;;;;;;;7.83;100.00;96550.00;7402554;19;20900;-92
2023/08/10 05:32:53;;;;;;;7.20;4.03;;;;;;;8.42;100.00;96597.22;7399643;19;20440;-91
2023/08/10 05:35:21;;;;;;;3.47;3.00;;;;;;;6.90;100.00;96341.44;7398951;19;20383;-91
2023/08/10 05:37:48;;;;;;;4.80;2.97;;;;;;;7.10;100.00;96346.97;7420018;19;20385;-91
2023/08/10 05:40:15;;;;;;;3.27;2.47;;;;;;;9.28;100.00;96660.69;7432762;19;20445;-92
2023/08/10 05:42:43;;;;;;;3.47;2.90;;;;;;;9.39;100.00;96656.66;7427972;19;20400;-91
2023/08/10 05:45:15;;;;;;;4.80;2.80;;;;;;;8.55;100.00;96507.50;7428155;19;20384;-91
2023/08/10 05:47:43;;;;;;;7.93;2.90;;;;;;;9.41;100.00;96604.34;7406507;19;20372;-91
2023/08/10 05:50:11;;;;;;;3.40;3.10;;;;;;;9.78;100.00;96623.25;7403353;19;20372;-91
2023/08/10 05:52:38;;;;;;;3.50;3.20;;;;;;;10.14;100.00;96675.69;7398678;19;20404;-91
2023/08/10 05:55:06;;;;;;;3.73;3.17;;;;;;;9.26;100.00;96575.78;7395105;19;20428;-91
2023/08/10 05:57:33;;;;;;;2.60;2.40;;;;;;;9.50;100.00;96593.78;7396990;19;20916;-90
2023/08/10 06:00:00;;;;;;;3.23;2.90;;;;;;;8.95;100.00;96488.13;7395501;19;20455;-91
2023/08/10 06:02:38;;;;;;;3.10;2.80;;;;;;;9.72;100.00;96579.59;7393884;19;20380;-91
2023/08/10 06:05:06;;;;;;;3.27;2.90;;;;;;;10.18;100.00;96613.22;7397553;19;20416;-91
2023/08/10 06:07:34;;;;;;;3.30;2.73;;;;;;;10.45;100.00;96672.06;7399150;19;20384;-92
2023/08/10 06:10:01;;;;;;;2.63;2.43;;;;;;;9.93;100.00;96551.44;7396861;19;20383;-92
2023/08/10 06:12:28;;;;;;;15.37;8.93;;;;;;;10.65;100.00;96616.59;7393536;19;20412;-92
2023/08/10 06:14:55;;;;;;;7.03;5.60;;;;;;;10.53;100.00;96531.91;7398536;19;20381;-93
2023/08/10 06:17:22;;;;;;;3.63;3.27;;;;;;;10.37;100.00;96485.97;7398007;19;20384;-92
2023/08/10 06:19:53;;;;;;;3.33;2.57;;;;;;;11.70;100.00;96651.09;7400703;19;20393;-93
2023/08/10 06:22:24;;;;;;;3.10;2.67;;;;;;;11.19;100.00;96558.53;7395337;19;20396;-93
2023/08/10 06:24:52;;;;;;;3.93;2.47;;;;;;;12.16;100.00;96657.25;7397146;19;20475;-93
2023/08/10 06:27:27;;;;;;;2.80;2.60;;;;;;;10.34;100.00;96397.56;7396885;19;20449;-93
2023/08/10 06:29:58;;;;;;;3.70;3.13;;;;;;;10.74;100.00;96391.00;7406419;19;20963;-93
2023/08/10 06:32:27;;;;;;;2.83;2.40;;;;;;;10.86;100.00;96406.94;7394971;19;20956;-93
2023/08/10 06:34:57;;;;;;;3.97;2.87;;;;;;;12.42;100.00;96642.63;7394106;19;20380;-93
2023/08/10 06:37:28;;;;;;;4.80;2.50;;;;;;;10.78;100.00;96373.38;7396972;19;20365;-93
2023/08/10 06:39:59;;;;;;;2.97;2.77;;;;;;;12.25;100.00;96571.22;7403775;19;20365;-93
2023/08/10 06:42:29;;;;;;;3.13;2.43;;;;;;;11.44;100.00;96452.72;7401781;19;20749;-93
2023/08/10 06:45:01;;;;;;;3.13;2.80;;;;;;;12.38;100.00;96561.38;7402684;19;20953;-93
2023/08/10 06:47:29;;;;;;;4.70;2.97;;;;;;;12.16;100.00;96496.34;7402416;19;20408;-93
2023/08/10 06:49:58;;;;;;;3.30;2.70;;;;;;;11.18;100.00;96416.72;7401032;19;20376;-93
2023/08/10 06:52:26;;;;;;;2.93;2.73;;;;;;;12.69;100.00;96574.88;7400218;19;20968;-93
2023/08/10 06:54:54;;;;;;;3.40;3.10;;;;;;;11.83;100.00;96446.84;7400900;19;20381;-93
2023/08/10 06:57:21;;;;;;;4.47;2.90;;;;;;;11.73;100.00;96407.50;7400994;19;20368;-93
2023/08/10 06:59:49;;;;;;;12.53;2.93;;;;;;;12.61;100.00;96516.63;7401662;19;20384;-93
2023/08/10 07:02:19;;;;;;;4.37;2.10;;;;;;;13.02;100.00;96518.94;7399980;19;20397;-93
2023/08/10 07:04:52;;;;;;;2.97;2.77;;;;;;;14.80;100.00;96708.94;7404424;19;20372;-93
2023/08/10 07:07:46;;;;;;;2.60;2.37;;;;;;;14.05;100.00;96579.41;7415292;19;20420;-94
2023/08/10 07:10:16;;;;;;;2.50;2.30;;;;;;;14.11;100.00;96630.44;7404842;19;20384;-91
2023/08/10 07:12:49;;;;;;;6.87;3.10;;;;;;;14.70;100.00;96720.13;7405884;19;20416;-93
2023/08/10 07:15:19;;;;;;;2.50;2.30;;;;;;;14.07;100.00;96603.75;7409733;19;20380;-92
2023/08/10 07:17:47;;;;;;;2.83;2.27;;;;;;;13.39;100.00;96455.09;7414042;19;20404;-92
2023/08/10 07:20:18;;;;;;;2.47;2.27;;;;;;;13.40;100.00;96461.97;7402604;19;20385;-93
2023/08/10 07:22:46;;;;;;;3.50;2.53;;;;;;;14.63;100.00;96616.91;7400804;19;20416;-92
2023/08/10 07:25:16;;;;;;;3.20;2.00;;;;;;;13.82;100.00;96499.44;7400022;19;20388;-93
2023/08/10 07:27:45;;;;;;;4.30;2.20;;;;;;;14.45;100.00;96597.13;7400322;19;20393;-93
2023/08/10 07:30:16;;;;;;;2.30;2.10;;;;;;;14.48;100.00;96524.59;7401378;19;20878;-92
2023/08/10 07:32:49;;;;;;;6.80;1.90;;;;;;;14.82;100.00;96546.22;7403058;19;20430;-93
2023/08/10 07:35:19;;;;;;;2.30;2.10;;;;;;;15.10;100.00;96589.44;7401617;19;20477;-93
2023/08/10 07:37:48;;;;;;;3.33;2.10;;;;;;;15.08;100.00;96551.72;7403473;19;20417;-92
2023/08/10 07:40:16;;;;;;;3.80;2.00;;;;;;;15.90;100.00;96647.44;7401819;19;20388;-92
2023/08/10 07:42:43;;;;;;;1.93;1.83;;;;;;;15.67;100.00;96622.59;7406602;19;20443;-93
2023/08/10 07:45:11;;;;;;;2.60;2.40;;;;;;;16.25;100.00;96684.66;7404007;19;20487;-93
2023/08/10 07:47:38;;;;;;;2.60;2.40;;;;;;;17.14;100.00;96726.22;7402273;19;20799;-93
2023/08/10 07:50:09;;;;;;;2.90;2.03;;;;;;;16.43;100.00;96628.16;7398540;19;20407;-91
2023/08/10 07:52:39;;;;;;;4.40;2.73;;;;;;;16.03;100.00;96548.59;7395312;19;20412;-91
2023/08/10 07:55:10;;;;;;;3.67;1.87;;;;;;;17.20;100.00;96683.16;7399429;19;20389;-91
2023/08/10 07:57:37;;;;;;;2.43;2.00;;;;;;;16.47;100.00;96610.28;7398750;19;20399;-91
2023/08/10 08:00:25;;;;;;;1.83;1.70;;;;;;;17.43;100.00;96671.28;7399766;19;20381;-92
2023/08/10 08:02:52;;;;;;;2.03;1.90;;;;;;;16.76;100.00;96593.59;7396560;19;20421;-92
2023/08/10 08:05:19;;;;;;;1.90;1.80;;;;;;;17.10;100.00;96597.16;7397280;19;20381;-92
2023/08/10 08:07:46;;;;;;;8.23;2.10;;;;;;;16.63;100.00;96493.44;7396661;19;20376;-92
2023/08/10 08:10:14;;;;;;;3.27;2.60;;;;;;;16.63;100.00;96476.66;7396822;19;20435;-92
2023/08/10 08:12:41;;;;;;;2.43;1.70;;;;;;;17.34;100.00;96603.16;7395936;19;20400;-91
2023/08/10 08:15:08;;;;;;;2.50;2.20;;;;;;;17.96;100.00;96624.94;7397501;19;20391;-91
2023/08/10 08:18:13;;;;;;;2.03;1.90;;;;;;;18.88;100.00;96764.34;7396046;19;20380;-91
2023/08/10 08:20:40;;;;;;;2.70;1.83;;;;;;;18.02;100.00;96612.75;7399831;19;20392;-92
2023/08/10 08:23:07;;;;;;;2.17;1.73;;;;;;;18.34;100.00;96628.34;7395651;19;20431;-91
2023/08/10 08:25:35;;;;;;;2.70;1.93;;;;;;;18.21;100.00;96646.59;7400470;19;20401;-91
2023/08/10 08:28:05;;;;;;;7.83;2.37;;;;;;;18.72;100.00;96702.97;7408538;19;20380;-91
2023/08/10 08:30:32;;;;;;;4.33;2.13;;;;;;;18.19;100.00;96654.22;7398092;19;20373;-92
2023/08/10 08:33:16;;;;;;;;;;;;;;;;;;;;;
2023/08/10 08:36:03;;;;;;;2.00;1.73;;;;;;;17.76;93.60;96586.88;7398032;19;20746;-92
2023/08/10 08:38:30;;;;;;;2.60;1.93;;;;;;;17.79;98.46;96609.47;7400683;19;20932;-94
2023/08/10 08:40:58;;;;;;;1.70;1.60;;;;;;;17.51;86.91;96561.75;7399650;19;20391;-93
2023/08/10 08:43:25;;;;;;;1.73;1.63;;;;;;;18.50;88.21;96715.34;7408397;19;20409;-93
2023/08/10 08:45:52;;;;;;;1.63;1.53;;;;;;;18.50;92.75;96666.38;7399913;19;20480;-93
2023/08/10 08:48:20;;;;;;;1.80;1.70;;;;;;;17.92;87.09;96618.78;7401936;19;20401;-93
2023/08/10 08:50:47;;;;;;;2.10;1.90;;;;;;;17.87;90.28;96614.50;7397894;19;20417;-93
2023/08/10 08:53:17;;;;;;;1.87;1.77;;;;;;;18.41;93.50;96655.94;7399622;19;20444;-92
2023/08/10 08:55:48;;;;;;;5.10;2.60;;;;;;;17.50;84.05;96573.59;7398351;19;20444;-93
2023/08/10 08:58:16;;;;;;;4.83;2.00;;;;;;;18.46;85.55;96638.78;7401517;19;20377;-93
2023/08/10 09:00:52;;;;;;;2.10;1.87;;;;;;;19.32;81.83;96704.53;7398769;19;20471;-92
2023/08/10 09:03:20;;;;;;;2.07;1.97;;;;;;;19.32;82.49;96718.72;7399680;19;20417;-93
2023/08/10 09:05:48;;;;;;;1.73;1.63;;;;;;;19.10;74.34;96706.31;7399529;19;20404;-92
2023/08/10 09:08:17;;;;;;;4.20;1.90;;;;;;;18.90;71.01;96674.38;7399564;19;20536;-92
2023/08/10 09:10:46;;;;;;;1.63;1.53;;;;;;;19.24;73.91;96682.28;7398642;19;20393;-93
2023/08/10 09:13:23;;;;;;;1.50;1.40;;;;;;;18.19;71.54;96630.91;7399954;19;20444;-93
2023/08/10 09:16:03;;;;;;;2.20;1.90;;;;;;;18.81;74.34;96756.22;7399798;19;20400;-93
2023/08/10 09:18:40;;;;;;;1.70;1.60;;;;;;;17.29;73.67;96445.78;7400811;19;20393;-94
2023/08/10 09:21:17;;;;;;;2.40;1.87;;;;;;;19.06;72.56;96636.59;7401795;19;20736;-94
2023/08/10 09:53:45;;;;;;;2.43;2.13;;;;;;;18.05;76.36;96563.09;7399940;19;20404;-90
2023/08/10 20:34:49;;;;;;;10.20;4.47;;;;;;;13.25;100.00;96609.53;7412158;19;20361;-93
2023/08/10 20:37:17;;;;;;;6.20;3.83;;;;;;;12.20;100.00;96493.78;7401179;19;20920;-93
2023/08/10 20:39:44;;;;;;;11.10;4.57;;;;;;;11.81;100.00;96427.09;7400301;19;20381;-92
2023/08/10 20:42:12;;;;;;;16.40;4.20;;;;;;;12.57;100.00;96508.56;7414413;19;20907;-92
2023/08/10 20:44:41;;;;;;;11.00;4.30;;;;;;;13.64;100.00;96678.94;7402054;19;20380;-92
2023/08/10 20:47:09;;;;;;;15.40;4.60;;;;;;;13.35;100.00;96645.44;7417347;19;20392;-92
2023/08/10 20:49:36;;;;;;;6.43;3.73;;;;;;;11.37;100.00;96360.63;7410085;19;20373;-92
2023/08/10 20:52:04;;;;;;;9.30;3.87;;;;;;;13.24;100.00;96649.69;7402697;19;20448;-91
2023/08/10 20:54:35;;;;;;;12.40;3.63;;;;;;;12.69;100.00;96564.25;7403023;19;20392;-92
2023/08/10 20:57:03;;;;;;;9.53;4.00;;;;;;;12.08;100.00;96518.41;7404121;19;20384;-91
2023/08/10 20:59:34;;;;;;;8.73;3.97;;;;;;;11.43;100.00;96372.53;7399891;19;20377;-91
2023/08/10 21:02:04;;;;;;;5.03;3.77;;;;;;;11.29;100.00;96342.19;7404093;19;20749;-91
2023/08/10 21:04:37;;;;;;;9.10;4.23;;;;;;;12.58;100.00;96539.28;7401474;19;20380;-91
2023/08/10 21:07:04;;;;;;;4.00;3.70;;;;;;;11.93;100.00;96456.25;7401061;19;20389;-91
2023/08/10 21:09:32;;;;;;;9.33;4.10;;;;;;;12.52;100.00;96548.56;7402114;19;21023;-91
2023/08/10 21:12:00;;;;;;;7.17;3.50;;;;;;;11.42;100.00;96381.56;7400980;19;20756;-91
2023/08/10 21:14:27;;;;;;;3.27;2.97;;;;;;;12.92;100.00;96654.00;7402104;19;20997;-91
2023/08/10 21:17:01;;;;;;;8.87;3.53;;;;;;;11.23;100.00;96418.41;7404065;19;20698;-91
2023/08/10 21:19:28;;;;;;;5.03;3.73;;;;;;;10.99;100.00;96437.63;7404935;19;20456;-91
2023/08/10 21:21:58;;;;;;;5.63;3.73;;;;;;;12.07;100.00;96569.88;7411421;19;20897;-91
2023/08/10 21:24:25;;;;;;;6.60;3.47;;;;;;;11.48;100.00;96457.03;7408820;19;20405;-92
2023/08/10 21:26:54;;;;;;;4.93;2.70;;;;;;;11.45;100.00;96447.09;7395702;19;20400;-92
2023/08/10 21:29:22;;;;;;;7.47;3.67;;;;;;;10.79;100.00;96418.00;7397404;19;20380;-91
2023/08/10 21:31:49;;;;;;;4.43;3.87;;;;;;;10.53;100.00;96375.94;7398291;19;20385;-91
2023/08/10 21:34:19;;;;;;;4.67;3.50;;;;;;;12.18;100.00;96652.41;7397927;19;20497;-91
2023/08/10 21:36:47;;;;;;;4.43;4.00;;;;;;;10.93;100.00;96512.97;7397809;19;20397;-91
2023/08/10 21:39:14;;;;;;;4.70;4.00;;;;;;;11.96;100.00;96654.31;7402571;19;20916;-91
2023/08/10 21:41:41;;;;;;;3.90;3.30;;;;;;;10.41;100.00;96383.03;7399001;19;20448;-92
2023/08/10 21:44:09;;;;;;;6.80;3.73;;;;;;;12.59;100.00;96704.50;7405179;19;20420;-91
2023/08/10 21:46:37;;;;;;;5.17;3.87;;;;;;;12.68;100.00;96702.53;7409433;19;20377;-91
2023/08/10 21:49:05;;;;;;;5.03;3.30;;;;;;;11.21;100.00;96518.50;7402203;19;20452;-91
2023/08/10 21:51:34;;;;;;;7.87;3.47;;;;;;;10.88;100.00;96510.53;7394638;19;20392;-91
2023/08/10 21:54:01;;;;;;;5.37;3.33;;;;;;;10.66;100.00;96491.22;7394631;19;20420;-92
2023/08/10 21:56:28;;;;;;;6.50;4.23;;;;;;;11.76;100.00;96607.44;7398118;19;20389;-91
2023/08/10 21:58:56;;;;;;;5.97;3.77;;;;;;;10.34;100.00;96391.50;7396438;19;20727;-90
2023/08/10 22:01:23;;;;;;;3.93;3.53;;;;;;;12.24;100.00;96683.66;7397681;19;20515;-91
2023/08/10 22:03:50;;;;;;;3.80;3.50;;;;;;;10.93;100.00;96499.75;7396036;19;20400;-91
2023/08/10 22:06:18;;;;;;;5.00;4.47;;;;;;;9.67;100.00;96344.81;7396548;19;20383;-91
2023/08/10 22:08:45;;;;;;;5.30;3.33;;;;;;;9.51;100.00;96370.22;7394073;19;20387;-90
2023/08/10 22:11:13;;;;;;;3.73;3.43;;;;;;;10.60;100.00;96565.78;7398003;19;20381;-90
2023/08/10 22:14:01;;;;;;;7.30;3.80;;;;;;;9.14;100.00;96356.69;7402211;19;20424;-90
2023/08/10 22:16:32;;;;;;;4.90;3.50;;;;;;;11.39;100.00;96673.47;7394220;19;20384;-92
2023/08/10 22:19:01;;;;;;;4.50;4.13;;;;;;;10.12;100.00;96468.38;7393580;19;20811;-92
2023/08/10 22:21:28;;;;;;;10.43;3.47;;;;;;;11.50;100.00;96644.72;7395569;19;20396;-91
2023/08/10 22:23:55;;;;;;;4.80;4.33;;;;;;;10.44;100.00;96491.56;7395599;19;20409;-93
2023/08/10 22:26:22;;;;;;;5.67;3.87;;;;;;;11.41;100.00;96678.44;7394893;19;20385;-91
2023/08/10 22:28:50;;;;;;;5.90;3.20;;;;;;;10.22;100.00;96455.63;7396020;19;20376;-92
2023/08/10 22:31:17;;;;;;;8.13;4.00;;;;;;;10.37;100.00;96478.06;7400441;19;20376;-93
2023/08/10 22:33:45;;;;;;;4.00;3.70;;;;;;;11.31;100.00;96617.91;7415140;19;20432;-91
2023/08/10 22:36:12;;;;;;;7.40;3.37;;;;;;;11.70;100.00;96722.59;7408631;19;20384;-90
2023/08/10 22:38:39;;;;;;;4.23;3.87;;;;;;;10.82;100.00;96621.06;7424684;19;20396;-91
2023/08/10 22:41:06;;;;;;;3.43;3.10;;;;;;;10.22;100.00;96571.88;7414532;19;20396;-92
2023/08/10 22:43:34;;;;;;;5.13;3.60;;;;;;;10.25;100.00;96558.03;7410230;19;20424;-92
2023/08/10 22:46:04;;;;;;;3.80;3.20;;;;;;;10.62;100.00;96587.38;7420769;19;20385;-92
2023/08/10 22:48:31;;;;;;;5.77;3.97;;;;;;;10.46;100.00;96533.53;7427529;19;20392;-92